Nordic Harrier — V7VH2 — position and weather

sailwx.info

Track history (hours):
 
Tides and Currents Weather Stations Pressure Air Temp Water Temp Dewpoint Dewpoint Depression Visibility Wind Speed Wind Dir Waves Ship Positions

Nordic Harrier

Last reported at 2015-May-06 13:07 UTC. Time now 2015-May-28 16:02 UTC.
Position N 01°55' E 102°18'.
Warning: this ship's position is 22 days out of date.

Length 274 m; draft 9.2 m.

Type: Ship. MMSI: 538004121.

Date/timePositionNaut miles runAvg speedWind from/ knotsBaromVisibWave heightAir tempDewpointWater temp
2015-May-06 13:07N 01°55' E 102°18'911.7
2015-May-06 12:23N 01°51' E 102°26'1012.1
2015-May-06 11:33N 01°47' E 102°36'1713.4
2015-May-06 10:15N 01°40' E 102°51'56 3.2
2015-May-05 16:33N 01°12' E 103°40'0 0.0
2015-May-05 14:18N 01°12' E 103°40'2 2.5
2015-May-05 13:25N 01°14' E 103°41'  
2015-May-03 06:29N 01°14' E 103°41'2 2.4
2015-May-03 05:33N 01°15' E 103°43'  
2015-Apr-29 18:31N 01°14' E 103°45'0 0.0
2015-Apr-29 17:13N 01°14' E 103°45'0 0.0
2015-Apr-29 15:25N 01°14' E 103°45'0 0.0
2015-Apr-29 14:28N 01°14' E 103°45'0 0.0
2015-Apr-29 13:28N 01°14' E 103°45'0 0.0
2015-Apr-29 12:28N 01°14' E 103°45'0 0.0
2015-Apr-29 11:31N 01°14' E 103°45'0 0.1
2015-Apr-29 10:28N 01°14' E 103°45'0 0.1
2015-Apr-29 09:34N 01°14' E 103°45'1 1.2
2015-Apr-29 08:33N 01°15' E 103°43'61 1.7
2015-Apr-27 21:33N 01°38' E 102°47'1611.1
2015-Apr-27 20:06N 01°45' E 102°33'611.2
2015-Apr-27 19:34N 01°47' E 102°27'1211.2
2015-Apr-27 18:31N 01°52' E 102°17'  
Track history (hours):
 
Tides and Currents Weather Stations Pressure Air Temp Water Temp Dewpoint Dewpoint Depression Visibility Wind Speed Wind Dir Waves Ship Positions

Nordic Harrier

Last reported at 2015-May-06 13:07 UTC. Time now 2015-May-28 16:02 UTC.
Position N 01°55' E 102°18'.
Warning: this ship's position is 22 days out of date.

Length 274 m; draft 9.2 m.

Type: Ship. MMSI: 538004121.

Date/timePositionNaut miles runAvg speedWind from/ knotsBaromVisibWave heightAir tempDewpointWater temp
2015-May-06 13:07N 01°55' E 102°18'911.7
2015-May-06 12:23N 01°51' E 102°26'1012.1
2015-May-06 11:33N 01°47' E 102°36'1713.4
2015-May-06 10:15N 01°40' E 102°51'56 3.2
2015-May-05 16:33N 01°12' E 103°40'0 0.0
2015-May-05 14:18N 01°12' E 103°40'2 2.5
2015-May-05 13:25N 01°14' E 103°41'  
2015-May-03 06:29N 01°14' E 103°41'2 2.4
2015-May-03 05:33N 01°15' E 103°43'  
2015-Apr-29 18:31N 01°14' E 103°45'0 0.0
2015-Apr-29 17:13N 01°14' E 103°45'0 0.0
2015-Apr-29 15:25N 01°14' E 103°45'0 0.0
2015-Apr-29 14:28N 01°14' E 103°45'0 0.0
2015-Apr-29 13:28N 01°14' E 103°45'0 0.0
2015-Apr-29 12:28N 01°14' E 103°45'0 0.0
2015-Apr-29 11:31N 01°14' E 103°45'0 0.1
2015-Apr-29 10:28N 01°14' E 103°45'0 0.1
2015-Apr-29 09:34N 01°14' E 103°45'1 1.2
2015-Apr-29 08:33N 01°15' E 103°43'61 1.7
2015-Apr-27 21:33N 01°38' E 102°47'1611.1
2015-Apr-27 20:06N 01°45' E 102°33'611.2
2015-Apr-27 19:34N 01°47' E 102°27'1211.2
2015-Apr-27 18:31N 01°52' E 102°17'  

Dump ship's entire track history